createdAt,value
2018-04-12T00:01:04.093Z,0.70
2018-04-12T00:03:32.383Z,1.03
2018-04-12T00:06:00.710Z,0.70
2018-04-12T00:08:29.092Z,0.63
2018-04-12T00:10:57.452Z,0.87
2018-04-12T00:13:25.815Z,0.80
2018-04-12T00:15:54.195Z,0.80
2018-04-12T00:18:22.555Z,0.60
2018-04-12T00:20:50.915Z,0.57
2018-04-12T00:23:19.323Z,1.00
2018-04-12T00:25:47.687Z,1.00
2018-04-12T00:28:16.106Z,0.83
2018-04-12T00:30:44.433Z,0.70
2018-04-12T00:33:12.702Z,0.80
2018-04-12T00:35:41.022Z,0.70
2018-04-12T00:38:09.349Z,0.63
2018-04-12T00:40:37.593Z,1.07
2018-04-12T00:43:05.907Z,0.97
2018-04-12T00:45:34.247Z,0.80
2018-04-12T00:48:02.537Z,0.63
2018-04-12T00:50:30.843Z,1.00
2018-04-12T00:52:59.127Z,0.80
2018-04-12T00:55:27.429Z,0.80
2018-04-12T00:57:55.748Z,0.60
2018-04-12T01:00:24.042Z,0.63
2018-04-12T01:02:52.311Z,0.53
2018-04-12T01:05:20.646Z,0.70
2018-04-12T01:07:48.904Z,0.70
2018-04-12T01:10:17.245Z,0.70
2018-04-12T01:12:45.529Z,0.80
2018-04-12T01:15:13.810Z,0.70
2018-04-12T01:17:42.131Z,0.80
2018-04-12T01:20:10.491Z,0.87
2018-04-12T01:22:38.765Z,0.80
2018-04-12T01:25:07.089Z,0.70
2018-04-12T01:27:35.403Z,0.80
2018-04-12T01:30:03.697Z,0.90
2018-04-12T01:32:32.045Z,0.90
2018-04-12T01:35:00.341Z,0.60
2018-04-12T01:37:28.577Z,0.70
2018-04-12T01:39:56.852Z,0.77
2018-04-12T01:42:25.144Z,0.80
2018-04-12T01:44:53.441Z,0.73
2018-04-12T01:47:21.723Z,0.70
2018-04-12T01:49:49.980Z,0.73
2018-04-12T01:52:18.314Z,0.60
2018-04-12T01:54:46.652Z,0.70
2018-04-12T01:57:14.915Z,0.90
2018-04-12T01:59:43.164Z,0.63
2018-04-12T02:02:11.445Z,0.70
2018-04-12T02:04:39.701Z,0.70
2018-04-12T02:07:08.038Z,0.67
2018-04-12T02:09:36.309Z,0.60
2018-04-12T02:12:04.590Z,0.70
2018-04-12T02:14:32.878Z,0.57
2018-04-12T02:17:01.173Z,0.80
2018-04-12T02:19:29.454Z,0.70
2018-04-12T02:21:57.726Z,0.70
2018-04-12T02:24:26.001Z,0.63
2018-04-12T02:26:54.301Z,0.70
2018-04-12T02:29:22.549Z,0.63
2018-04-12T02:31:50.837Z,0.90
2018-04-12T02:34:19.154Z,0.70
2018-04-12T02:36:47.480Z,0.50
2018-04-12T02:39:15.755Z,0.90
2018-04-12T02:41:44.101Z,0.70
2018-04-12T02:44:12.386Z,0.90
2018-04-12T02:46:40.692Z,0.90
2018-04-12T02:49:09.009Z,0.70
2018-04-12T02:51:37.346Z,0.90
2018-04-12T02:54:05.738Z,0.60
2018-04-12T02:56:34.117Z,0.90
2018-04-12T02:59:02.489Z,0.90
2018-04-12T03:01:30.919Z,0.77
2018-04-12T03:03:59.247Z,0.80
2018-04-12T03:06:27.621Z,0.73
2018-04-12T03:08:55.917Z,0.63
2018-04-12T03:11:24.221Z,0.60
2018-04-12T03:13:52.489Z,0.63
2018-04-12T03:16:20.754Z,0.77
2018-04-12T03:18:49.039Z,0.77
2018-04-12T03:21:17.382Z,0.60
2018-04-12T03:23:45.758Z,0.90
2018-04-12T03:26:14.157Z,0.73
2018-04-12T03:28:42.465Z,0.70
2018-04-12T03:31:10.787Z,0.70
2018-04-12T03:33:39.087Z,0.60
2018-04-12T03:36:07.396Z,0.80
2018-04-12T03:38:35.703Z,0.70
2018-04-12T03:41:03.998Z,0.60
2018-04-12T03:43:32.266Z,0.70
2018-04-12T03:46:00.544Z,0.70
2018-04-12T03:48:28.876Z,0.80
2018-04-12T03:50:57.157Z,0.67
2018-04-12T03:53:25.444Z,0.60
2018-04-12T03:55:53.698Z,0.50
2018-04-12T03:58:22.007Z,0.63
2018-04-12T04:00:50.260Z,0.50
2018-04-12T04:03:18.573Z,0.70
2018-04-12T04:05:46.838Z,0.83
2018-04-12T04:08:15.140Z,0.70
2018-04-12T04:10:43.410Z,0.50
2018-04-12T04:13:11.756Z,0.83
2018-04-12T04:15:51.895Z,0.70
2018-04-12T04:18:32.101Z,0.70
2018-04-12T04:21:06.372Z,0.80
2018-04-12T04:23:34.753Z,0.90
2018-04-12T04:26:03.101Z,0.60
2018-04-12T04:28:31.443Z,0.50
2018-04-12T04:30:59.793Z,0.60
2018-04-12T04:33:28.220Z,0.53
2018-04-12T04:35:56.564Z,0.70
2018-04-12T04:38:24.959Z,0.60
2018-04-12T04:40:53.316Z,0.70
2018-04-12T04:43:21.677Z,0.53
2018-04-12T04:45:50.079Z,0.70
2018-04-12T04:48:18.426Z,0.70
2018-04-12T04:50:46.770Z,0.50
2018-04-12T04:53:15.034Z,0.50
2018-04-12T04:55:43.423Z,0.60
2018-04-12T04:58:11.875Z,0.63
2018-04-12T05:00:40.331Z,0.67
2018-04-12T05:03:08.980Z,0.87
2018-04-12T05:05:37.412Z,0.53
2018-04-12T05:08:05.873Z,0.60
2018-04-12T05:10:34.335Z,0.60
2018-04-12T05:13:02.676Z,0.50
2018-04-12T05:15:30.937Z,0.70
2018-04-12T05:17:59.230Z,0.53
2018-04-12T05:20:27.620Z,0.60
2018-04-12T05:22:56.056Z,0.60
2018-04-12T05:25:24.632Z,0.50
2018-04-12T05:27:53.015Z,0.43
2018-04-12T05:30:21.512Z,0.67
2018-04-12T05:32:49.948Z,0.57
2018-04-12T05:35:18.335Z,0.57
2018-04-12T05:37:46.711Z,0.60
2018-04-12T05:40:15.056Z,0.50
2018-04-12T05:42:43.457Z,0.40
2018-04-12T05:45:11.864Z,0.60
2018-04-12T05:47:40.248Z,0.50
2018-04-12T05:50:08.766Z,0.60
2018-04-12T05:52:37.140Z,0.70
2018-04-12T05:55:05.534Z,0.57
2018-04-12T05:57:33.924Z,0.60
2018-04-12T06:00:02.296Z,0.70
2018-04-12T06:02:30.696Z,0.60
2018-04-12T06:04:59.155Z,0.70
2018-04-12T06:07:27.487Z,0.60
2018-04-12T06:09:55.861Z,0.70
2018-04-12T06:12:24.256Z,0.50
2018-04-12T06:14:52.624Z,0.63
2018-04-12T06:17:20.913Z,0.63
2018-04-12T06:19:49.257Z,0.60
2018-04-12T06:22:17.671Z,0.50
2018-04-12T06:24:46.097Z,0.67
2018-04-12T06:27:14.477Z,1.90
2018-04-12T06:29:42.831Z,1.87
2018-04-12T06:32:11.119Z,1.50
2018-04-12T06:34:39.391Z,1.80
2018-04-12T06:37:07.921Z,1.73
2018-04-12T06:39:36.603Z,1.40
2018-04-12T06:42:05.030Z,1.50
2018-04-12T06:44:33.612Z,1.80
2018-04-12T06:47:02.530Z,1.70
2018-04-12T06:49:30.995Z,1.27
2018-04-12T06:51:59.585Z,1.40
2018-04-12T06:54:28.055Z,1.60
2018-04-12T06:56:56.585Z,1.20
2018-04-12T06:59:25.070Z,1.40
2018-04-12T07:01:53.499Z,1.40
2018-04-12T07:04:22.212Z,1.20
2018-04-12T07:06:51.375Z,1.77
2018-04-12T07:09:19.860Z,1.37
2018-04-12T07:11:48.558Z,1.17
2018-04-12T07:14:17.032Z,1.07
2018-04-12T07:16:45.514Z,1.00
2018-04-12T07:19:14.011Z,1.53
2018-04-12T07:21:42.934Z,0.90
2018-04-12T07:24:11.406Z,0.90
2018-04-12T07:26:40.036Z,1.27
2018-04-12T07:29:08.748Z,1.20
2018-04-12T07:31:37.478Z,0.93
2018-04-12T07:34:06.160Z,1.00
2018-04-12T07:36:34.990Z,1.00
2018-04-12T07:39:03.898Z,1.33
2018-04-12T07:41:32.362Z,1.00
2018-04-12T07:44:00.844Z,1.40
2018-04-12T07:46:29.534Z,1.20
2018-04-12T07:48:58.034Z,1.10
2018-04-12T07:51:26.612Z,1.20
2018-04-12T07:53:55.730Z,1.07
2018-04-12T07:56:24.686Z,0.90
2018-04-12T07:58:53.161Z,1.00
2018-04-12T08:01:21.641Z,0.87
2018-04-12T08:03:50.219Z,1.30
2018-04-12T08:06:18.918Z,1.00
2018-04-12T08:08:47.614Z,0.90
2018-04-12T08:11:16.188Z,0.70
2018-04-12T08:13:45.177Z,0.90
2018-04-12T08:16:13.983Z,0.73
2018-04-12T08:18:42.512Z,0.83
2018-04-12T08:21:11.049Z,0.90
2018-04-12T08:23:39.738Z,0.83
2018-04-12T08:26:08.510Z,0.70
2018-04-12T08:28:36.981Z,0.70
2018-04-12T08:31:05.463Z,0.70
2018-04-12T08:33:33.944Z,0.80
2018-04-12T08:36:02.427Z,0.80
2018-04-12T08:38:31.005Z,0.80
2018-04-12T08:40:59.643Z,0.53
2018-04-12T08:43:29.223Z,0.93
2018-04-12T08:45:57.792Z,1.17
2018-04-12T08:48:26.365Z,0.80
2018-04-12T08:50:55.467Z,0.70
2018-04-12T08:53:24.051Z,1.00
2018-04-12T08:55:52.862Z,0.77
2018-04-12T08:58:21.437Z,0.90
2018-04-12T09:00:50.344Z,0.70
2018-04-12T09:03:19.205Z,0.87
2018-04-12T09:05:47.778Z,0.80
2018-04-12T09:08:16.159Z,0.73
2018-04-12T09:10:44.481Z,0.77
2018-04-12T09:13:12.911Z,0.73
2018-04-12T09:15:41.492Z,0.73
2018-04-12T09:18:10.033Z,0.77
2018-04-12T09:20:38.553Z,0.70
2018-04-12T09:23:07.198Z,0.80
2018-04-12T09:25:35.730Z,0.80
2018-04-12T09:28:04.206Z,1.07
2018-04-12T09:30:32.686Z,0.93
2018-04-12T09:33:01.217Z,1.07
2018-04-12T09:35:29.754Z,1.07
2018-04-12T09:37:58.563Z,1.00
2018-04-12T09:40:27.083Z,1.03
2018-04-12T09:42:55.803Z,1.10
2018-04-12T09:45:24.167Z,1.43
2018-04-12T09:47:52.511Z,1.17
2018-04-12T09:50:20.890Z,1.40
2018-04-12T09:52:49.376Z,1.37
2018-04-12T09:55:17.752Z,0.70
2018-04-12T09:57:46.250Z,0.90
2018-04-12T10:00:14.735Z,0.90
2018-04-12T10:02:48.593Z,0.70
2018-04-12T10:05:22.592Z,0.90
2018-04-12T10:07:51.900Z,1.03
2018-04-12T10:10:20.255Z,0.83
2018-04-12T10:12:48.598Z,0.90
2018-04-12T10:15:16.981Z,0.73
2018-04-12T10:17:45.340Z,0.70
2018-04-12T10:20:13.737Z,0.80
2018-04-12T10:22:42.159Z,0.70
2018-04-12T10:25:10.531Z,0.77
2018-04-12T10:27:39.016Z,0.80
2018-04-12T10:30:07.483Z,0.80
2018-04-12T10:32:35.900Z,0.70
2018-04-12T10:35:04.363Z,0.90
2018-04-12T10:37:32.849Z,0.90
2018-04-12T10:40:01.439Z,0.60
2018-04-12T10:42:29.864Z,0.70
2018-04-12T10:44:58.330Z,0.70
2018-04-12T10:47:26.762Z,0.70
2018-04-12T10:49:55.152Z,0.80
2018-04-12T10:52:23.530Z,0.70
2018-04-12T10:54:51.938Z,0.90
2018-04-12T10:57:20.270Z,0.70
2018-04-12T10:59:48.712Z,0.60
2018-04-12T11:02:17.142Z,0.50
2018-04-12T11:04:45.494Z,0.70
2018-04-12T11:07:13.954Z,0.90
2018-04-12T11:09:42.357Z,1.00
2018-04-12T11:12:10.791Z,0.40
2018-04-12T11:14:39.451Z,0.80
2018-04-12T11:17:07.785Z,1.13
2018-04-12T11:19:36.200Z,0.57
2018-04-12T11:22:04.774Z,0.50
2018-04-12T11:24:33.345Z,0.53
2018-04-12T11:27:01.769Z,0.67
2018-04-12T11:29:30.157Z,0.73
2018-04-12T11:31:58.559Z,0.87
2018-04-12T11:34:27.077Z,0.80
2018-04-12T11:36:55.505Z,0.50
2018-04-12T11:39:24.060Z,0.40
2018-04-12T11:41:52.420Z,0.37
2018-04-12T11:44:20.801Z,0.70
2018-04-12T11:46:49.202Z,0.60
2018-04-12T11:49:17.606Z,0.70
2018-04-12T11:51:45.968Z,0.43
2018-04-12T11:54:14.347Z,0.60
2018-04-12T11:56:42.757Z,0.60
2018-04-12T11:59:11.280Z,0.63
2018-04-12T12:01:39.768Z,0.90
2018-04-12T12:04:08.216Z,0.67
2018-04-12T12:06:36.566Z,0.87
2018-04-12T12:09:05.194Z,0.93
2018-04-12T12:11:33.521Z,0.70
2018-04-12T12:14:01.790Z,0.80
2018-04-12T12:16:30.361Z,0.50
2018-04-12T12:18:58.681Z,0.70
2018-04-12T12:21:27.040Z,0.90
2018-04-12T12:23:55.402Z,0.70
2018-04-12T12:26:23.827Z,0.77
2018-04-12T12:28:52.208Z,0.83
2018-04-12T12:31:20.740Z,0.57
2018-04-12T12:33:49.268Z,0.90
2018-04-12T12:36:17.580Z,0.67
2018-04-12T12:38:46.570Z,0.50
2018-04-12T12:41:14.923Z,0.57
2018-04-12T12:43:43.390Z,0.70
2018-04-12T12:46:11.774Z,0.60
2018-04-12T12:48:40.155Z,0.77
2018-04-12T12:51:08.746Z,0.57
2018-04-12T12:53:40.247Z,0.47
2018-04-12T12:56:08.685Z,0.90
2018-04-12T12:58:36.978Z,0.77
2018-04-12T13:01:05.342Z,0.47
2018-04-12T13:03:34.039Z,0.57
2018-04-12T13:26:05.907Z,0.70
2018-04-12T13:28:34.448Z,0.90
2018-04-12T13:31:03.068Z,0.80
2018-04-12T13:33:31.760Z,0.80
2018-04-12T13:36:00.348Z,0.70
2018-04-12T13:38:28.930Z,0.70
2018-04-12T13:40:58.012Z,0.57
2018-04-12T13:43:26.347Z,0.70
2018-04-12T13:45:54.861Z,0.80
2018-04-12T13:48:23.401Z,0.60
2018-04-12T13:50:52.141Z,0.70
2018-04-12T13:53:20.626Z,0.77
2018-04-12T13:55:49.188Z,0.80
2018-04-12T13:58:17.678Z,0.70
2018-04-12T14:00:46.154Z,0.63
2018-04-12T14:03:14.535Z,0.60
2018-04-12T14:05:42.931Z,0.50
2018-04-12T14:08:11.402Z,0.80
2018-04-12T14:10:39.883Z,0.87
2018-04-12T14:13:08.359Z,0.70
2018-04-12T14:15:36.851Z,0.97
2018-04-12T14:18:05.313Z,0.80
2018-04-12T14:20:33.795Z,0.57
2018-04-12T14:23:02.278Z,0.60
2018-04-12T14:25:30.700Z,0.70
2018-04-12T14:27:59.141Z,0.80
2018-04-12T14:30:27.825Z,0.80
2018-04-12T14:32:56.298Z,0.60
2018-04-12T14:35:25.129Z,0.63
2018-04-12T14:37:53.831Z,0.73
2018-04-12T14:40:22.478Z,0.70
2018-04-12T14:42:51.111Z,0.67
2018-04-12T14:45:19.524Z,1.00
2018-04-12T14:47:48.212Z,0.80
2018-04-12T14:50:17.074Z,0.70
2018-04-12T14:52:45.607Z,1.10
2018-04-12T14:55:14.081Z,0.90
2018-04-12T14:57:42.654Z,1.23
2018-04-12T15:00:11.436Z,0.90
2018-04-12T15:02:40.022Z,0.50
2018-04-12T15:05:08.599Z,0.83
2018-04-12T15:07:37.261Z,0.60
2018-04-12T15:10:05.880Z,0.97
2018-04-12T15:12:34.234Z,0.60
2018-04-12T15:15:02.483Z,1.20
2018-04-12T15:17:30.854Z,0.47
2018-04-12T15:19:59.136Z,0.80
2018-04-12T15:22:27.486Z,0.60
2018-04-12T15:24:55.779Z,0.70
2018-04-12T15:27:24.156Z,0.70
2018-04-12T15:29:52.647Z,1.03
2018-04-12T15:32:20.990Z,0.83
2018-04-12T15:34:49.435Z,0.80
2018-04-12T15:37:17.837Z,0.60
2018-04-12T15:39:46.142Z,0.97
2018-04-12T15:42:14.454Z,0.80
2018-04-12T15:44:42.859Z,0.70
2018-04-12T15:47:11.236Z,0.80
2018-04-12T15:49:39.892Z,0.90
2018-04-12T15:52:08.279Z,1.00
2018-04-12T15:54:36.690Z,1.10
2018-04-12T15:57:05.052Z,0.70
2018-04-12T15:59:33.394Z,0.70
2018-04-12T16:02:01.839Z,0.80
2018-04-12T16:04:30.265Z,1.13
2018-04-12T16:06:58.769Z,0.73
2018-04-12T16:09:27.459Z,1.00
2018-04-12T16:11:55.975Z,0.80
2018-04-12T16:14:24.465Z,0.73
2018-04-12T16:16:53.070Z,0.93
2018-04-12T16:19:21.528Z,0.80
2018-04-12T16:21:49.955Z,0.70
2018-04-12T16:24:18.328Z,0.90
2018-04-12T16:26:46.686Z,0.80
2018-04-12T16:29:14.956Z,0.67
2018-04-12T16:31:43.342Z,0.80
2018-04-12T16:34:11.631Z,0.73
2018-04-12T16:36:39.916Z,0.77
2018-04-12T16:39:08.310Z,0.60
2018-04-12T16:41:36.728Z,0.50
2018-04-12T16:44:05.089Z,0.57
2018-04-12T16:46:33.740Z,0.80
2018-04-12T16:49:02.271Z,0.73
2018-04-12T16:51:30.812Z,0.50
2018-04-12T16:53:59.308Z,0.50
2018-04-12T16:56:28.105Z,0.60
2018-04-12T16:58:56.775Z,0.53
2018-04-12T17:01:25.663Z,0.50
2018-04-12T17:03:54.201Z,0.60
2018-04-12T17:06:22.719Z,0.73
2018-04-12T17:08:51.554Z,0.80
2018-04-12T17:11:20.301Z,0.60
2018-04-12T17:13:48.777Z,0.80
2018-04-12T17:16:17.257Z,0.40
2018-04-12T17:18:45.698Z,0.90
2018-04-12T17:21:14.835Z,0.90
2018-04-12T17:23:43.415Z,0.60
2018-04-12T17:26:11.997Z,0.50
2018-04-12T17:28:40.734Z,0.53
2018-04-12T17:31:09.321Z,0.60
2018-04-12T17:33:38.051Z,0.60
2018-04-12T17:36:06.585Z,0.60
2018-04-12T17:38:35.112Z,0.50
2018-04-12T17:41:03.810Z,0.70
2018-04-12T17:43:32.200Z,0.67
2018-04-12T17:46:00.692Z,0.67
2018-04-12T17:48:29.309Z,0.80
2018-04-12T17:50:58.138Z,0.70
2018-04-12T17:53:26.724Z,0.80
2018-04-12T17:55:55.363Z,0.60
2018-04-12T17:58:23.856Z,0.50
2018-04-12T18:00:52.572Z,0.97
2018-04-12T18:03:21.056Z,0.77
2018-04-12T18:05:49.733Z,0.70
2018-04-12T18:08:18.524Z,0.90
2018-04-12T18:10:47.068Z,0.60
2018-04-12T18:13:17.728Z,1.00
2018-04-12T18:15:46.356Z,0.87
2018-04-12T18:18:14.816Z,1.00
2018-04-12T18:20:43.196Z,0.83
2018-04-12T18:23:11.880Z,0.67
2018-04-12T18:25:40.701Z,0.80
2018-04-12T18:28:09.133Z,0.63
2018-04-12T18:30:38.126Z,0.90
2018-04-12T18:33:06.605Z,0.80
2018-04-12T18:35:34.915Z,0.63
2018-04-12T18:38:04.185Z,0.97
2018-04-12T18:40:32.916Z,0.80
2018-04-12T18:43:01.264Z,0.80
2018-04-12T18:45:31.018Z,0.97
2018-04-12T18:47:59.540Z,0.77
2018-04-12T18:50:28.020Z,0.73
2018-04-12T18:52:56.432Z,0.87
2018-04-12T18:55:24.982Z,0.80
2018-04-12T18:57:53.464Z,0.70
2018-04-12T19:00:21.834Z,0.60
2018-04-12T19:02:50.316Z,0.70
2018-04-12T19:05:19.146Z,0.93
2018-04-12T19:07:48.097Z,1.00
2018-04-12T19:10:16.478Z,1.07
2018-04-12T19:12:45.060Z,0.80
2018-04-12T19:15:13.610Z,0.60
2018-04-12T19:17:42.139Z,0.80
2018-04-12T19:20:10.461Z,0.97
2018-04-12T19:22:38.984Z,1.20
2018-04-12T19:25:07.573Z,1.20
2018-04-12T19:27:36.062Z,1.20
2018-04-12T19:30:04.526Z,0.70
2018-04-12T19:32:33.008Z,0.63
2018-04-12T19:35:01.572Z,0.80
2018-04-12T19:37:30.277Z,0.60
2018-04-12T19:39:58.920Z,0.70
2018-04-12T19:42:27.344Z,1.00
2018-04-12T19:44:55.898Z,0.80
2018-04-12T19:47:24.320Z,0.80
2018-04-12T19:49:52.984Z,0.60
2018-04-12T19:52:21.431Z,0.70
2018-04-12T19:54:49.846Z,0.67
2018-04-12T19:57:18.429Z,0.40
2018-04-12T19:59:47.216Z,0.97
2018-04-12T20:02:15.840Z,0.73
2018-04-12T20:04:44.592Z,0.60
2018-04-12T20:07:13.495Z,0.87
2018-04-12T20:09:41.821Z,0.70
2018-04-12T20:12:10.233Z,0.50
2018-04-12T20:14:39.133Z,0.53
2018-04-12T20:17:07.903Z,0.67
2018-04-12T20:19:36.426Z,0.60
2018-04-12T20:22:04.878Z,0.40
2018-04-12T20:24:33.257Z,0.60
2018-04-12T20:27:01.740Z,0.80
2018-04-12T20:29:30.049Z,0.50
2018-04-12T20:31:58.489Z,0.40
2018-04-12T20:34:26.879Z,0.70
2018-04-12T20:36:55.451Z,0.70
2018-04-12T20:39:23.833Z,0.30
2018-04-12T20:41:52.273Z,0.50
2018-04-12T20:44:20.685Z,0.60
2018-04-12T20:46:49.169Z,0.60
2018-04-12T20:49:17.651Z,0.60
2018-04-12T20:51:46.131Z,0.60
2018-04-12T20:54:14.681Z,0.60
2018-04-12T20:56:43.398Z,0.40
2018-04-12T20:59:11.782Z,0.70
2018-04-12T21:01:40.467Z,0.80
2018-04-12T21:04:08.944Z,0.60
2018-04-12T21:06:37.317Z,0.50
2018-04-12T21:09:06.941Z,0.60
2018-04-12T21:11:35.355Z,0.70
2018-04-12T21:14:03.788Z,0.70
2018-04-12T21:16:32.283Z,0.73
2018-04-12T21:19:00.749Z,0.67
2018-04-12T21:21:29.234Z,0.70
2018-04-12T21:23:57.714Z,0.60
2018-04-12T21:26:26.293Z,0.77
2018-04-12T21:28:54.874Z,0.70
2018-04-12T21:31:23.253Z,0.80
2018-04-12T21:33:51.666Z,0.70
2018-04-12T21:36:20.049Z,0.53
2018-04-12T21:38:48.605Z,0.83
2018-04-12T21:41:16.979Z,0.80
2018-04-12T21:43:45.348Z,0.87
2018-04-12T21:46:13.830Z,0.60
2018-04-12T21:48:42.317Z,0.77
2018-04-12T21:51:10.793Z,0.80
2018-04-12T21:53:39.207Z,0.73
2018-04-12T21:56:07.690Z,0.80
2018-04-12T21:58:36.096Z,0.70
2018-04-12T22:01:04.616Z,0.60
2018-04-12T22:03:33.007Z,0.93
2018-04-12T22:06:01.368Z,0.73
2018-04-12T22:08:29.848Z,0.90
2018-04-12T22:10:58.231Z,0.90
2018-04-12T22:13:26.574Z,0.60
2018-04-12T22:15:55.147Z,0.80
2018-04-12T22:18:23.672Z,1.00
2018-04-12T22:20:52.053Z,0.80
2018-04-12T22:23:20.426Z,0.80
2018-04-12T22:25:48.820Z,0.80
2018-04-12T22:28:17.182Z,1.23
2018-04-12T22:30:45.607Z,0.90
2018-04-12T22:33:14.063Z,0.70
2018-04-12T22:35:42.519Z,0.90
2018-04-12T22:38:10.916Z,0.67
2018-04-12T22:40:39.279Z,0.80
2018-04-12T22:43:07.778Z,0.80
2018-04-12T22:45:36.144Z,0.93
2018-04-12T22:48:04.414Z,0.90
2018-04-12T22:50:32.896Z,0.80
2018-04-12T22:53:01.499Z,0.80
2018-04-12T22:55:29.996Z,0.60
2018-04-12T22:57:58.441Z,0.73
2018-04-12T23:00:26.874Z,0.83
2018-04-12T23:02:55.402Z,0.70
2018-04-12T23:05:23.779Z,1.03
2018-04-12T23:07:52.262Z,0.97
2018-04-12T23:10:20.645Z,0.80
2018-04-12T23:12:49.074Z,0.80
2018-04-12T23:15:17.504Z,0.63
2018-04-12T23:17:45.976Z,0.90
2018-04-12T23:20:14.417Z,0.80
2018-04-12T23:22:42.769Z,0.70
2018-04-12T23:25:11.217Z,0.70
2018-04-12T23:27:39.621Z,1.00
2018-04-12T23:30:07.973Z,0.80
2018-04-12T23:32:36.287Z,0.70
2018-04-12T23:35:04.623Z,0.80
2018-04-12T23:37:33.104Z,0.87
2018-04-12T23:42:32.575Z,0.80
2018-04-12T23:45:00.904Z,0.80
2018-04-12T23:47:29.395Z,0.90
2018-04-12T23:49:57.760Z,1.03
2018-04-12T23:52:26.141Z,0.77
2018-04-12T23:54:54.668Z,0.87
2018-04-12T23:57:23.019Z,0.83
2018-04-12T23:59:51.489Z,0.80
